sensor_id;sensor_type;location;lat;lon;timestamp;temperature;humidity
54590;DHT22;40485;53.172;5.416;2022-07-06T00:00:48;18.70;78.40
54590;DHT22;40485;53.172;5.416;2022-07-06T00:03:13;18.70;79.40
54590;DHT22;40485;53.172;5.416;2022-07-06T00:05:39;18.60;79.60
54590;DHT22;40485;53.172;5.416;2022-07-06T00:08:04;18.60;79.30
54590;DHT22;40485;53.172;5.416;2022-07-06T00:10:30;18.50;79.80
54590;DHT22;40485;53.172;5.416;2022-07-06T00:12:56;18.50;79.30
54590;DHT22;40485;53.172;5.416;2022-07-06T00:15:21;18.50;78.50
54590;DHT22;40485;53.172;5.416;2022-07-06T00:17:47;18.60;79.00
54590;DHT22;40485;53.172;5.416;2022-07-06T00:20:13;18.60;77.90
54590;DHT22;40485;53.172;5.416;2022-07-06T00:22:38;18.50;79.30
54590;DHT22;40485;53.172;5.416;2022-07-06T00:25:04;18.50;79.80
54590;DHT22;40485;53.172;5.416;2022-07-06T00:27:30;18.60;79.50
54590;DHT22;40485;53.172;5.416;2022-07-06T00:29:55;18.70;80.10
54590;DHT22;40485;53.172;5.416;2022-07-06T00:32:21;18.80;79.00
54590;DHT22;40485;53.172;5.416;2022-07-06T00:34:47;18.70;79.60
54590;DHT22;40485;53.172;5.416;2022-07-06T00:37:12;18.70;79.70
54590;DHT22;40485;53.172;5.416;2022-07-06T00:39:40;18.70;77.60
54590;DHT22;40485;53.172;5.416;2022-07-06T00:42:06;18.70;77.50
54590;DHT22;40485;53.172;5.416;2022-07-06T00:44:32;18.70;77.50
54590;DHT22;40485;53.172;5.416;2022-07-06T00:46:59;18.70;78.40
54590;DHT22;40485;53.172;5.416;2022-07-06T00:49:25;18.70;78.30
54590;DHT22;40485;53.172;5.416;2022-07-06T00:52:09;18.60;76.00
54590;DHT22;40485;53.172;5.416;2022-07-06T00:54:36;18.70;74.20
54590;DHT22;40485;53.172;5.416;2022-07-06T00:57:02;18.70;74.50
54590;DHT22;40485;53.172;5.416;2022-07-06T00:59:28;18.70;75.80
54590;DHT22;40485;53.172;5.416;2022-07-06T01:01:54;18.60;76.50
54590;DHT22;40485;53.172;5.416;2022-07-06T01:04:19;18.60;76.70
54590;DHT22;40485;53.172;5.416;2022-07-06T01:06:45;18.50;75.70
54590;DHT22;40485;53.172;5.416;2022-07-06T01:09:12;18.50;76.60
54590;DHT22;40485;53.172;5.416;2022-07-06T01:11:38;18.50;76.80
54590;DHT22;40485;53.172;5.416;2022-07-06T01:14:03;18.60;77.60
54590;DHT22;40485;53.172;5.416;2022-07-06T01:16:30;18.60;78.50
54590;DHT22;40485;53.172;5.416;2022-07-06T01:18:55;18.60;78.30
54590;DHT22;40485;53.172;5.416;2022-07-06T01:21:21;18.50;79.80
54590;DHT22;40485;53.172;5.416;2022-07-06T01:23:47;18.50;79.70
54590;DHT22;40485;53.172;5.416;2022-07-06T01:26:15;18.50;80.70
54590;DHT22;40485;53.172;5.416;2022-07-06T01:28:41;18.60;78.80
54590;DHT22;40485;53.172;5.416;2022-07-06T01:31:23;18.50;79.20
54590;DHT22;40485;53.172;5.416;2022-07-06T01:33:50;18.60;80.50
54590;DHT22;40485;53.172;5.416;2022-07-06T01:36:16;18.60;79.90
54590;DHT22;40485;53.172;5.416;2022-07-06T01:38:55;18.50;81.50
54590;DHT22;40485;53.172;5.416;2022-07-06T01:41:24;18.40;81.70
54590;DHT22;40485;53.172;5.416;2022-07-06T01:43:51;18.50;81.90
54590;DHT22;40485;53.172;5.416;2022-07-06T01:46:17;18.40;80.90
54590;DHT22;40485;53.172;5.416;2022-07-06T01:48:44;18.50;81.10
54590;DHT22;40485;53.172;5.416;2022-07-06T01:51:09;18.50;80.80
54590;DHT22;40485;53.172;5.416;2022-07-06T01:53:35;18.60;80.70
54590;DHT22;40485;53.172;5.416;2022-07-06T01:56:01;18.60;79.70
54590;DHT22;40485;53.172;5.416;2022-07-06T01:58:27;18.60;79.70
54590;DHT22;40485;53.172;5.416;2022-07-06T02:00:52;18.60;78.70
54590;DHT22;40485;53.172;5.416;2022-07-06T02:03:18;18.60;79.20
54590;DHT22;40485;53.172;5.416;2022-07-06T02:05:43;18.60;77.80
54590;DHT22;40485;53.172;5.416;2022-07-06T02:08:09;18.50;78.90
54590;DHT22;40485;53.172;5.416;2022-07-06T02:10:35;18.50;78.00
54590;DHT22;40485;53.172;5.416;2022-07-06T02:13:00;18.50;78.50
54590;DHT22;40485;53.172;5.416;2022-07-06T02:15:26;18.40;77.80
54590;DHT22;40485;53.172;5.416;2022-07-06T02:17:51;18.50;79.20
54590;DHT22;40485;53.172;5.416;2022-07-06T02:20:17;18.40;80.10
54590;DHT22;40485;53.172;5.416;2022-07-06T02:22:42;18.40;80.10
54590;DHT22;40485;53.172;5.416;2022-07-06T02:25:08;18.30;77.90
54590;DHT22;40485;53.172;5.416;2022-07-06T02:27:34;18.40;79.00
54590;DHT22;40485;53.172;5.416;2022-07-06T02:29:59;18.40;78.50
54590;DHT22;40485;53.172;5.416;2022-07-06T02:32:25;18.40;77.90
54590;DHT22;40485;53.172;5.416;2022-07-06T02:34:50;18.30;78.20
54590;DHT22;40485;53.172;5.416;2022-07-06T02:37:18;18.30;78.10
54590;DHT22;40485;53.172;5.416;2022-07-06T02:39:43;18.30;79.40
54590;DHT22;40485;53.172;5.416;2022-07-06T02:42:09;18.20;80.20
54590;DHT22;40485;53.172;5.416;2022-07-06T02:44:35;18.20;79.80
54590;DHT22;40485;53.172;5.416;2022-07-06T02:47:00;18.20;80.20
54590;DHT22;40485;53.172;5.416;2022-07-06T02:49:26;18.20;77.80
54590;DHT22;40485;53.172;5.416;2022-07-06T02:51:51;18.10;79.10
54590;DHT22;40485;53.172;5.416;2022-07-06T02:54:17;18.20;79.80
54590;DHT22;40485;53.172;5.416;2022-07-06T02:56:43;18.00;79.10
54590;DHT22;40485;53.172;5.416;2022-07-06T02:59:09;18.10;78.50
54590;DHT22;40485;53.172;5.416;2022-07-06T03:01:35;18.10;79.20
54590;DHT22;40485;53.172;5.416;2022-07-06T03:04:00;18.10;80.10
54590;DHT22;40485;53.172;5.416;2022-07-06T03:06:26;18.00;80.00
54590;DHT22;40485;53.172;5.416;2022-07-06T03:08:51;18.10;79.90
54590;DHT22;40485;53.172;5.416;2022-07-06T03:11:17;18.00;80.50
54590;DHT22;40485;53.172;5.416;2022-07-06T03:13:43;18.00;80.70
54590;DHT22;40485;53.172;5.416;2022-07-06T03:16:08;18.00;80.00
54590;DHT22;40485;53.172;5.416;2022-07-06T03:18:34;18.00;81.10
54590;DHT22;40485;53.172;5.416;2022-07-06T03:20:59;18.00;80.10
54590;DHT22;40485;53.172;5.416;2022-07-06T03:23:26;18.00;80.40
54590;DHT22;40485;53.172;5.416;2022-07-06T03:25:51;18.00;80.80
54590;DHT22;40485;53.172;5.416;2022-07-06T03:28:17;17.90;80.50
54590;DHT22;40485;53.172;5.416;2022-07-06T03:30:42;17.90;81.00
54590;DHT22;40485;53.172;5.416;2022-07-06T03:33:08;17.90;80.90
54590;DHT22;40485;53.172;5.416;2022-07-06T03:35:34;18.10;80.90
54590;DHT22;40485;53.172;5.416;2022-07-06T03:37:59;18.00;81.30
54590;DHT22;40485;53.172;5.416;2022-07-06T03:40:25;18.00;79.80
54590;DHT22;40485;53.172;5.416;2022-07-06T03:42:50;18.10;80.20
54590;DHT22;40485;53.172;5.416;2022-07-06T03:45:16;18.10;80.10
54590;DHT22;40485;53.172;5.416;2022-07-06T03:47:42;18.10;79.80
54590;DHT22;40485;53.172;5.416;2022-07-06T03:50:08;18.20;79.50
54590;DHT22;40485;53.172;5.416;2022-07-06T03:52:35;18.30;80.50
54590;DHT22;40485;53.172;5.416;2022-07-06T03:55:00;18.30;79.20
54590;DHT22;40485;53.172;5.416;2022-07-06T03:57:26;18.30;79.70
54590;DHT22;40485;53.172;5.416;2022-07-06T03:59:52;18.20;79.80
54590;DHT22;40485;53.172;5.416;2022-07-06T04:02:17;18.20;79.70
54590;DHT22;40485;53.172;5.416;2022-07-06T04:04:43;18.20;80.20
54590;DHT22;40485;53.172;5.416;2022-07-06T04:07:08;18.20;79.70
54590;DHT22;40485;53.172;5.416;2022-07-06T04:09:34;18.30;80.20
54590;DHT22;40485;53.172;5.416;2022-07-06T04:12:00;18.30;81.50
54590;DHT22;40485;53.172;5.416;2022-07-06T04:14:25;18.30;79.00
54590;DHT22;40485;53.172;5.416;2022-07-06T04:16:52;18.30;76.90
54590;DHT22;40485;53.172;5.416;2022-07-06T04:19:18;18.40;80.40
54590;DHT22;40485;53.172;5.416;2022-07-06T04:21:43;18.40;80.30
54590;DHT22;40485;53.172;5.416;2022-07-06T04:24:09;18.30;80.60
54590;DHT22;40485;53.172;5.416;2022-07-06T04:26:35;18.30;80.80
54590;DHT22;40485;53.172;5.416;2022-07-06T04:29:00;18.20;80.20
54590;DHT22;40485;53.172;5.416;2022-07-06T04:31:26;18.30;80.10
54590;DHT22;40485;53.172;5.416;2022-07-06T04:33:51;18.40;80.60
54590;DHT22;40485;53.172;5.416;2022-07-06T04:36:17;18.30;80.20
54590;DHT22;40485;53.172;5.416;2022-07-06T04:38:42;18.30;81.90
54590;DHT22;40485;53.172;5.416;2022-07-06T04:41:08;18.30;81.00
54590;DHT22;40485;53.172;5.416;2022-07-06T04:43:34;18.20;82.30
54590;DHT22;40485;53.172;5.416;2022-07-06T04:45:59;18.20;81.00
54590;DHT22;40485;53.172;5.416;2022-07-06T04:48:26;18.10;81.20
54590;DHT22;40485;53.172;5.416;2022-07-06T04:50:52;18.10;81.20
54590;DHT22;40485;53.172;5.416;2022-07-06T04:53:18;18.00;79.50
54590;DHT22;40485;53.172;5.416;2022-07-06T04:55:43;18.00;80.00
54590;DHT22;40485;53.172;5.416;2022-07-06T04:58:09;18.00;81.50
54590;DHT22;40485;53.172;5.416;2022-07-06T05:00:34;18.00;80.80
54590;DHT22;40485;53.172;5.416;2022-07-06T05:03:00;17.90;78.60
54590;DHT22;40485;53.172;5.416;2022-07-06T05:05:26;18.00;80.10
54590;DHT22;40485;53.172;5.416;2022-07-06T05:07:51;18.20;81.60
54590;DHT22;40485;53.172;5.416;2022-07-06T05:10:17;18.30;79.70
54590;DHT22;40485;53.172;5.416;2022-07-06T05:12:42;18.20;79.30
54590;DHT22;40485;53.172;5.416;2022-07-06T05:15:08;18.20;80.20
54590;DHT22;40485;53.172;5.416;2022-07-06T05:17:34;18.20;80.50
54590;DHT22;40485;53.172;5.416;2022-07-06T05:20:00;18.20;80.30
54590;DHT22;40485;53.172;5.416;2022-07-06T05:22:26;18.20;78.10
54590;DHT22;40485;53.172;5.416;2022-07-06T05:24:51;18.20;80.50
54590;DHT22;40485;53.172;5.416;2022-07-06T05:27:17;18.20;82.20
54590;DHT22;40485;53.172;5.416;2022-07-06T05:29:43;18.20;83.10
54590;DHT22;40485;53.172;5.416;2022-07-06T05:32:09;18.10;83.30
54590;DHT22;40485;53.172;5.416;2022-07-06T05:34:34;18.30;82.30
54590;DHT22;40485;53.172;5.416;2022-07-06T05:37:02;18.40;82.20
54590;DHT22;40485;53.172;5.416;2022-07-06T05:39:27;18.40;81.00
54590;DHT22;40485;53.172;5.416;2022-07-06T05:41:53;18.40;80.80
54590;DHT22;40485;53.172;5.416;2022-07-06T05:44:19;18.40;80.10
54590;DHT22;40485;53.172;5.416;2022-07-06T05:46:44;18.40;80.40
54590;DHT22;40485;53.172;5.416;2022-07-06T05:49:10;18.30;81.00
54590;DHT22;40485;53.172;5.416;2022-07-06T05:51:54;18.50;81.10
54590;DHT22;40485;53.172;5.416;2022-07-06T05:54:20;18.40;81.00
54590;DHT22;40485;53.172;5.416;2022-07-06T05:56:46;18.50;81.50
54590;DHT22;40485;53.172;5.416;2022-07-06T05:59:11;18.50;81.40
54590;DHT22;40485;53.172;5.416;2022-07-06T06:01:37;18.60;81.30
54590;DHT22;40485;53.172;5.416;2022-07-06T06:04:03;18.50;80.70
54590;DHT22;40485;53.172;5.416;2022-07-06T06:06:28;18.50;80.50
54590;DHT22;40485;53.172;5.416;2022-07-06T06:08:56;18.50;79.60
54590;DHT22;40485;53.172;5.416;2022-07-06T06:11:22;18.60;79.50
54590;DHT22;40485;53.172;5.416;2022-07-06T06:13:47;18.60;79.90
54590;DHT22;40485;53.172;5.416;2022-07-06T06:16:13;18.60;80.60
54590;DHT22;40485;53.172;5.416;2022-07-06T06:18:39;18.60;80.00
54590;DHT22;40485;53.172;5.416;2022-07-06T06:21:04;18.60;79.60
54590;DHT22;40485;53.172;5.416;2022-07-06T06:23:30;18.60;80.10
54590;DHT22;40485;53.172;5.416;2022-07-06T06:25:55;18.60;79.80
54590;DHT22;40485;53.172;5.416;2022-07-06T06:28:21;18.70;79.60
54590;DHT22;40485;53.172;5.416;2022-07-06T06:30:47;18.70;78.30
54590;DHT22;40485;53.172;5.416;2022-07-06T06:33:14;18.80;79.80
54590;DHT22;40485;53.172;5.416;2022-07-06T06:35:46;18.90;81.30
54590;DHT22;40485;53.172;5.416;2022-07-06T06:38:12;18.90;78.90
54590;DHT22;40485;53.172;5.416;2022-07-06T06:40:37;19.00;78.10
54590;DHT22;40485;53.172;5.416;2022-07-06T06:43:03;18.90;78.20
54590;DHT22;40485;53.172;5.416;2022-07-06T06:45:29;18.90;79.30
54590;DHT22;40485;53.172;5.416;2022-07-06T06:47:55;19.00;79.00
54590;DHT22;40485;53.172;5.416;2022-07-06T06:50:21;19.10;77.80
54590;DHT22;40485;53.172;5.416;2022-07-06T06:52:49;19.20;77.80
54590;DHT22;40485;53.172;5.416;2022-07-06T06:55:15;19.20;77.30
54590;DHT22;40485;53.172;5.416;2022-07-06T06:57:41;19.20;78.00
54590;DHT22;40485;53.172;5.416;2022-07-06T07:00:07;19.20;78.60
54590;DHT22;40485;53.172;5.416;2022-07-06T07:02:32;19.30;79.00
54590;DHT22;40485;53.172;5.416;2022-07-06T07:04:58;19.40;78.20
54590;DHT22;40485;53.172;5.416;2022-07-06T07:07:23;19.40;77.40
54590;DHT22;40485;53.172;5.416;2022-07-06T07:09:49;19.40;76.30
54590;DHT22;40485;53.172;5.416;2022-07-06T07:12:15;19.30;76.30
54590;DHT22;40485;53.172;5.416;2022-07-06T07:14:42;19.50;77.80
54590;DHT22;40485;53.172;5.416;2022-07-06T07:17:08;19.60;77.90
54590;DHT22;40485;53.172;5.416;2022-07-06T07:19:34;19.70;77.20
54590;DHT22;40485;53.172;5.416;2022-07-06T07:21:59;19.70;76.60
54590;DHT22;40485;53.172;5.416;2022-07-06T07:24:25;19.80;77.60
54590;DHT22;40485;53.172;5.416;2022-07-06T07:26:51;19.80;77.50
54590;DHT22;40485;53.172;5.416;2022-07-06T07:29:16;19.90;77.10
54590;DHT22;40485;53.172;5.416;2022-07-06T07:31:42;19.80;78.10
54590;DHT22;40485;53.172;5.416;2022-07-06T07:34:07;19.80;78.00
54590;DHT22;40485;53.172;5.416;2022-07-06T07:36:33;19.90;78.20
54590;DHT22;40485;53.172;5.416;2022-07-06T07:38:59;19.90;77.90
54590;DHT22;40485;53.172;5.416;2022-07-06T07:41:25;19.60;77.80
54590;DHT22;40485;53.172;5.416;2022-07-06T07:43:50;19.40;78.40
54590;DHT22;40485;53.172;5.416;2022-07-06T07:46:16;19.40;78.80
54590;DHT22;40485;53.172;5.416;2022-07-06T07:48:41;19.60;77.50
54590;DHT22;40485;53.172;5.416;2022-07-06T07:51:07;19.60;78.30
54590;DHT22;40485;53.172;5.416;2022-07-06T07:53:33;19.80;78.10
54590;DHT22;40485;53.172;5.416;2022-07-06T07:55:58;19.90;77.80
54590;DHT22;40485;53.172;5.416;2022-07-06T07:58:24;20.10;75.50
54590;DHT22;40485;53.172;5.416;2022-07-06T08:00:50;20.20;74.20
54590;DHT22;40485;53.172;5.416;2022-07-06T08:03:15;20.40;75.10
54590;DHT22;40485;53.172;5.416;2022-07-06T08:05:41;20.40;76.80
54590;DHT22;40485;53.172;5.416;2022-07-06T08:08:07;20.40;76.40
54590;DHT22;40485;53.172;5.416;2022-07-06T08:10:32;20.20;77.70
54590;DHT22;40485;53.172;5.416;2022-07-06T08:12:58;20.00;77.60
54590;DHT22;40485;53.172;5.416;2022-07-06T08:15:24;19.90;77.70
54590;DHT22;40485;53.172;5.416;2022-07-06T08:17:49;19.90;77.70
54590;DHT22;40485;53.172;5.416;2022-07-06T08:20:15;19.80;76.80
54590;DHT22;40485;53.172;5.416;2022-07-06T08:22:43;19.70;78.40
54590;DHT22;40485;53.172;5.416;2022-07-06T08:25:09;19.80;78.30
54590;DHT22;40485;53.172;5.416;2022-07-06T08:27:35;19.90;78.10
54590;DHT22;40485;53.172;5.416;2022-07-06T08:30:03;20.00;77.50
54590;DHT22;40485;53.172;5.416;2022-07-06T08:32:29;20.10;77.60
54590;DHT22;40485;53.172;5.416;2022-07-06T08:34:55;20.00;78.20
54590;DHT22;40485;53.172;5.416;2022-07-06T08:37:20;19.80;78.30
54590;DHT22;40485;53.172;5.416;2022-07-06T08:39:46;19.70;78.50
54590;DHT22;40485;53.172;5.416;2022-07-06T08:42:12;19.60;78.60
54590;DHT22;40485;53.172;5.416;2022-07-06T08:44:39;19.60;79.00
54590;DHT22;40485;53.172;5.416;2022-07-06T08:47:06;19.80;79.60
54590;DHT22;40485;53.172;5.416;2022-07-06T08:49:33;20.00;78.40
54590;DHT22;40485;53.172;5.416;2022-07-06T08:52:00;20.20;76.70
54590;DHT22;40485;53.172;5.416;2022-07-06T08:54:26;20.40;76.60
54590;DHT22;40485;53.172;5.416;2022-07-06T08:56:53;20.50;75.90
54590;DHT22;40485;53.172;5.416;2022-07-06T08:59:18;20.50;77.40
54590;DHT22;40485;53.172;5.416;2022-07-06T09:01:45;20.60;77.10
54590;DHT22;40485;53.172;5.416;2022-07-06T09:04:13;20.40;77.40
54590;DHT22;40485;53.172;5.416;2022-07-06T09:06:42;20.30;77.40
54590;DHT22;40485;53.172;5.416;2022-07-06T09:09:09;20.10;78.90
54590;DHT22;40485;53.172;5.416;2022-07-06T09:11:35;20.10;78.50
54590;DHT22;40485;53.172;5.416;2022-07-06T09:14:03;20.10;79.30
54590;DHT22;40485;53.172;5.416;2022-07-06T09:16:30;20.20;80.10
54590;DHT22;40485;53.172;5.416;2022-07-06T09:18:56;20.20;78.60
54590;DHT22;40485;53.172;5.416;2022-07-06T09:21:26;20.20;78.80
54590;DHT22;40485;53.172;5.416;2022-07-06T09:23:54;20.10;79.20
54590;DHT22;40485;53.172;5.416;2022-07-06T09:26:20;20.00;79.40
54590;DHT22;40485;53.172;5.416;2022-07-06T09:28:46;20.00;79.70
54590;DHT22;40485;53.172;5.416;2022-07-06T09:31:11;19.90;80.10
54590;DHT22;40485;53.172;5.416;2022-07-06T09:33:37;19.80;80.90
54590;DHT22;40485;53.172;5.416;2022-07-06T09:36:04;19.70;80.00
54590;DHT22;40485;53.172;5.416;2022-07-06T09:38:31;19.70;81.20
54590;DHT22;40485;53.172;5.416;2022-07-06T09:40:57;19.60;80.40
54590;DHT22;40485;53.172;5.416;2022-07-06T09:43:23;19.70;81.10
54590;DHT22;40485;53.172;5.416;2022-07-06T09:45:51;19.70;80.60
54590;DHT22;40485;53.172;5.416;2022-07-06T09:50:56;19.90;80.10
54590;DHT22;40485;53.172;5.416;2022-07-06T09:53:23;19.90;80.00
54590;DHT22;40485;53.172;5.416;2022-07-06T09:55:56;20.00;80.10
54590;DHT22;40485;53.172;5.416;2022-07-06T09:58:24;20.10;78.80
54590;DHT22;40485;53.172;5.416;2022-07-06T10:00:50;20.30;78.50
54590;DHT22;40485;53.172;5.416;2022-07-06T10:03:17;20.40;78.00
54590;DHT22;40485;53.172;5.416;2022-07-06T10:05:47;20.40;76.60
54590;DHT22;40485;53.172;5.416;2022-07-06T10:08:15;20.40;76.40
54590;DHT22;40485;53.172;5.416;2022-07-06T10:10:42;20.40;75.80
54590;DHT22;40485;53.172;5.416;2022-07-06T10:13:08;20.40;75.10
54590;DHT22;40485;53.172;5.416;2022-07-06T10:15:36;20.50;75.60
54590;DHT22;40485;53.172;5.416;2022-07-06T10:18:05;20.60;74.80
54590;DHT22;40485;53.172;5.416;2022-07-06T10:20:36;20.70;74.80
54590;DHT22;40485;53.172;5.416;2022-07-06T10:23:04;20.70;74.10
54590;DHT22;40485;53.172;5.416;2022-07-06T10:25:32;20.70;73.70
54590;DHT22;40485;53.172;5.416;2022-07-06T10:27:58;20.90;73.20
54590;DHT22;40485;53.172;5.416;2022-07-06T10:30:25;21.10;73.50
54590;DHT22;40485;53.172;5.416;2022-07-06T10:32:52;21.10;73.70
54590;DHT22;40485;53.172;5.416;2022-07-06T10:35:21;21.20;74.10
54590;DHT22;40485;53.172;5.416;2022-07-06T10:38:06;21.30;72.60
54590;DHT22;40485;53.172;5.416;2022-07-06T10:40:37;21.30;72.80
54590;DHT22;40485;53.172;5.416;2022-07-06T10:43:21;21.40;73.70
54590;DHT22;40485;53.172;5.416;2022-07-06T10:53:12;21.80;72.60
54590;DHT22;40485;53.172;5.416;2022-07-06T10:55:39;21.70;70.40
54590;DHT22;40485;53.172;5.416;2022-07-06T10:58:06;21.60;70.70
54590;DHT22;40485;53.172;5.416;2022-07-06T11:00:52;21.50;71.40
54590;DHT22;40485;53.172;5.416;2022-07-06T11:06:08;21.30;70.80
54590;DHT22;40485;53.172;5.416;2022-07-06T11:08:47;21.40;72.50
54590;DHT22;40485;53.172;5.416;2022-07-06T11:11:26;21.50;73.40
54590;DHT22;40485;53.172;5.416;2022-07-06T11:16:19;21.60;72.00
54590;DHT22;40485;53.172;5.416;2022-07-06T11:18:50;21.50;73.60
54590;DHT22;40485;53.172;5.416;2022-07-06T11:21:36;21.50;73.40
54590;DHT22;40485;53.172;5.416;2022-07-06T11:24:03;21.50;72.70
54590;DHT22;40485;53.172;5.416;2022-07-06T11:26:30;21.40;73.00
54590;DHT22;40485;53.172;5.416;2022-07-06T11:28:58;21.40;72.30
54590;DHT22;40485;53.172;5.416;2022-07-06T11:31:24;21.60;72.20
54590;DHT22;40485;53.172;5.416;2022-07-06T11:33:50;21.60;72.80
54590;DHT22;40485;53.172;5.416;2022-07-06T11:36:20;21.60;70.10
54590;DHT22;40485;53.172;5.416;2022-07-06T11:38:48;21.40;70.70
54590;DHT22;40485;53.172;5.416;2022-07-06T11:41:14;21.30;70.90
54590;DHT22;40485;53.172;5.416;2022-07-06T11:43:45;21.10;71.60
54590;DHT22;40485;53.172;5.416;2022-07-06T11:46:29;20.90;73.10
54590;DHT22;40485;53.172;5.416;2022-07-06T11:49:00;20.70;71.50
54590;DHT22;40485;53.172;5.416;2022-07-06T11:51:28;20.60;72.90
54590;DHT22;40485;53.172;5.416;2022-07-06T11:53:56;20.50;73.70
54590;DHT22;40485;53.172;5.416;2022-07-06T11:56:24;20.40;74.10
54590;DHT22;40485;53.172;5.416;2022-07-06T11:58:58;20.50;75.10
54590;DHT22;40485;53.172;5.416;2022-07-06T12:01:25;20.40;76.70
54590;DHT22;40485;53.172;5.416;2022-07-06T12:03:55;20.50;78.50
54590;DHT22;40485;53.172;5.416;2022-07-06T12:06:24;20.40;77.50
54590;DHT22;40485;53.172;5.416;2022-07-06T12:08:51;20.30;76.10
54590;DHT22;40485;53.172;5.416;2022-07-06T12:11:28;20.30;77.80
54590;DHT22;40485;53.172;5.416;2022-07-06T12:13:56;20.30;77.90
54590;DHT22;40485;53.172;5.416;2022-07-06T12:16:32;20.40;78.20
54590;DHT22;40485;53.172;5.416;2022-07-06T12:19:00;20.40;78.30
54590;DHT22;40485;53.172;5.416;2022-07-06T12:21:25;20.30;77.10
54590;DHT22;40485;53.172;5.416;2022-07-06T12:23:52;20.20;77.80
54590;DHT22;40485;53.172;5.416;2022-07-06T12:26:19;20.10;79.00
54590;DHT22;40485;53.172;5.416;2022-07-06T12:28:58;19.90;79.20
54590;DHT22;40485;53.172;5.416;2022-07-06T12:31:36;19.80;79.60
54590;DHT22;40485;53.172;5.416;2022-07-06T12:34:03;19.70;79.30
54590;DHT22;40485;53.172;5.416;2022-07-06T12:36:30;19.60;81.40
54590;DHT22;40485;53.172;5.416;2022-07-06T12:38:56;19.60;80.90
54590;DHT22;40485;53.172;5.416;2022-07-06T12:41:30;19.60;80.70
54590;DHT22;40485;53.172;5.416;2022-07-06T12:44:00;19.60;79.50
54590;DHT22;40485;53.172;5.416;2022-07-06T12:46:31;19.50;79.90
54590;DHT22;40485;53.172;5.416;2022-07-06T12:48:59;19.40;80.70
54590;DHT22;40485;53.172;5.416;2022-07-06T12:51:25;19.50;80.60
54590;DHT22;40485;53.172;5.416;2022-07-06T12:53:51;19.40;78.70
54590;DHT22;40485;53.172;5.416;2022-07-06T12:56:17;19.40;79.30
54590;DHT22;40485;53.172;5.416;2022-07-06T12:59:00;19.30;79.50
54590;DHT22;40485;53.172;5.416;2022-07-06T13:01:26;19.30;81.20
54590;DHT22;40485;53.172;5.416;2022-07-06T13:03:56;19.20;80.10
54590;DHT22;40485;53.172;5.416;2022-07-06T13:06:33;19.20;81.70
54590;DHT22;40485;53.172;5.416;2022-07-06T13:08:59;19.20;83.90
54590;DHT22;40485;53.172;5.416;2022-07-06T13:11:25;19.00;82.80
54590;DHT22;40485;53.172;5.416;2022-07-06T13:13:50;19.00;82.10
54590;DHT22;40485;53.172;5.416;2022-07-06T13:16:16;18.90;83.70
54590;DHT22;40485;53.172;5.416;2022-07-06T13:18:42;19.00;83.50
54590;DHT22;40485;53.172;5.416;2022-07-06T13:21:08;19.00;85.20
54590;DHT22;40485;53.172;5.416;2022-07-06T13:23:33;19.00;84.40
54590;DHT22;40485;53.172;5.416;2022-07-06T13:25:59;18.90;86.50
54590;DHT22;40485;53.172;5.416;2022-07-06T13:28:24;19.00;87.30
54590;DHT22;40485;53.172;5.416;2022-07-06T13:30:50;18.90;88.80
54590;DHT22;40485;53.172;5.416;2022-07-06T13:33:15;18.90;88.80
54590;DHT22;40485;53.172;5.416;2022-07-06T13:35:41;18.80;89.90
54590;DHT22;40485;53.172;5.416;2022-07-06T13:38:07;18.90;90.00
54590;DHT22;40485;53.172;5.416;2022-07-06T13:40:33;18.70;91.60
54590;DHT22;40485;53.172;5.416;2022-07-06T13:43:01;18.50;92.80
54590;DHT22;40485;53.172;5.416;2022-07-06T13:45:26;18.40;92.60
54590;DHT22;40485;53.172;5.416;2022-07-06T13:47:52;18.20;92.80
54590;DHT22;40485;53.172;5.416;2022-07-06T13:50:18;18.10;92.80
54590;DHT22;40485;53.172;5.416;2022-07-06T13:52:43;18.00;93.30
54590;DHT22;40485;53.172;5.416;2022-07-06T13:55:09;18.10;93.30
54590;DHT22;40485;53.172;5.416;2022-07-06T13:57:35;18.00;93.20
54590;DHT22;40485;53.172;5.416;2022-07-06T14:00:01;17.90;92.90
54590;DHT22;40485;53.172;5.416;2022-07-06T14:02:27;17.90;93.10
54590;DHT22;40485;53.172;5.416;2022-07-06T14:04:53;17.90;93.30
54590;DHT22;40485;53.172;5.416;2022-07-06T14:07:19;17.80;93.10
54590;DHT22;40485;53.172;5.416;2022-07-06T14:09:44;17.70;93.30
54590;DHT22;40485;53.172;5.416;2022-07-06T14:12:10;17.70;93.90
54590;DHT22;40485;53.172;5.416;2022-07-06T14:14:36;17.80;93.80
54590;DHT22;40485;53.172;5.416;2022-07-06T14:17:01;17.90;93.50
54590;DHT22;40485;53.172;5.416;2022-07-06T14:19:28;17.90;93.40
54590;DHT22;40485;53.172;5.416;2022-07-06T14:21:54;18.00;92.50
54590;DHT22;40485;53.172;5.416;2022-07-06T14:24:20;18.00;92.30
54590;DHT22;40485;53.172;5.416;2022-07-06T14:26:45;17.90;92.70
54590;DHT22;40485;53.172;5.416;2022-07-06T14:29:11;18.00;92.70
54590;DHT22;40485;53.172;5.416;2022-07-06T14:31:37;18.10;93.00
54590;DHT22;40485;53.172;5.416;2022-07-06T14:34:02;18.00;93.40
54590;DHT22;40485;53.172;5.416;2022-07-06T14:36:28;18.10;93.80
54590;DHT22;40485;53.172;5.416;2022-07-06T14:38:53;18.00;93.70
54590;DHT22;40485;53.172;5.416;2022-07-06T14:41:19;18.00;93.90
54590;DHT22;40485;53.172;5.416;2022-07-06T14:43:44;18.00;93.60
54590;DHT22;40485;53.172;5.416;2022-07-06T14:46:11;18.00;93.80
54590;DHT22;40485;53.172;5.416;2022-07-06T14:48:36;18.00;94.70
54590;DHT22;40485;53.172;5.416;2022-07-06T14:51:02;18.00;95.00
54590;DHT22;40485;53.172;5.416;2022-07-06T14:53:28;18.10;95.10
54590;DHT22;40485;53.172;5.416;2022-07-06T14:55:54;18.00;95.60
54590;DHT22;40485;53.172;5.416;2022-07-06T14:58:20;17.90;95.60
54590;DHT22;40485;53.172;5.416;2022-07-06T15:00:48;17.90;96.40
54590;DHT22;40485;53.172;5.416;2022-07-06T15:03:13;17.80;96.50
54590;DHT22;40485;53.172;5.416;2022-07-06T15:05:39;17.80;96.90
54590;DHT22;40485;53.172;5.416;2022-07-06T15:08:05;17.70;97.30
54590;DHT22;40485;53.172;5.416;2022-07-06T15:10:31;17.60;97.50
54590;DHT22;40485;53.172;5.416;2022-07-06T15:12:57;17.60;98.30
54590;DHT22;40485;53.172;5.416;2022-07-06T15:15:22;17.70;98.80
54590;DHT22;40485;53.172;5.416;2022-07-06T15:17:48;17.70;99.30
54590;DHT22;40485;53.172;5.416;2022-07-06T15:20:13;17.70;99.40
54590;DHT22;40485;53.172;5.416;2022-07-06T15:22:39;17.50;99.70
54590;DHT22;40485;53.172;5.416;2022-07-06T15:25:05;17.60;99.80
54590;DHT22;40485;53.172;5.416;2022-07-06T15:27:31;17.60;99.90
54590;DHT22;40485;53.172;5.416;2022-07-06T15:29:57;17.50;99.90
54590;DHT22;40485;53.172;5.416;2022-07-06T15:32:23;17.50;99.90
54590;DHT22;40485;53.172;5.416;2022-07-06T15:34:48;17.50;99.90
54590;DHT22;40485;53.172;5.416;2022-07-06T15:37:14;17.60;99.90
54590;DHT22;40485;53.172;5.416;2022-07-06T15:39:40;17.50;99.90
54590;DHT22;40485;53.172;5.416;2022-07-06T15:42:06;17.50;99.90